createdAt,value
2022-08-14T00:00:45.545Z,10.07
2022-08-14T00:03:29.294Z,9.40
2022-08-14T00:06:01.634Z,11.23
2022-08-14T00:08:44.766Z,10.20
2022-08-14T00:11:14.679Z,10.33
2022-08-14T00:13:52.439Z,8.97
2022-08-14T00:16:41.070Z,10.30
2022-08-14T00:19:19.574Z,10.53
2022-08-14T00:21:52.114Z,9.73
2022-08-14T00:24:30.874Z,11.20
2022-08-14T00:27:02.357Z,10.33
2022-08-14T00:29:40.283Z,11.37
2022-08-14T00:32:50.263Z,9.70
2022-08-14T00:35:04.548Z,8.33
2022-08-14T00:37:34.465Z,10.60
2022-08-14T00:40:27.334Z,9.40
2022-08-14T00:42:56.615Z,9.77
2022-08-14T00:45:30.650Z,10.00
2022-08-14T00:48:00.488Z,10.03
2022-08-14T00:50:31.936Z,11.00
2022-08-14T00:53:02.861Z,9.80
2022-08-14T00:55:32.275Z,10.70
2022-08-14T00:58:27.810Z,10.17
2022-08-14T01:01:05.236Z,10.23
2022-08-14T01:03:38.102Z,10.23
2022-08-14T01:06:11.264Z,12.00
2022-08-14T01:08:51.335Z,8.97
2022-08-14T01:11:35.247Z,10.83
2022-08-14T01:14:27.477Z,10.33
2022-08-14T01:16:55.733Z,11.80
2022-08-14T01:19:43.742Z,10.40
2022-08-14T01:22:18.454Z,10.77
2022-08-14T01:24:50.882Z,10.60
2022-08-14T01:27:25.031Z,10.93
2022-08-14T01:29:59.217Z,12.43
2022-08-14T01:32:37.531Z,11.40
2022-08-14T01:35:17.750Z,10.33
2022-08-14T01:38:05.933Z,10.57
2022-08-14T01:40:40.746Z,12.20
2022-08-14T01:43:18.849Z,10.57
2022-08-14T01:45:57.818Z,11.67
2022-08-14T01:48:37.072Z,9.73
2022-08-14T01:51:19.013Z,10.53
2022-08-14T01:53:55.789Z,9.77
2022-08-14T01:56:37.399Z,9.80
2022-08-14T01:59:14.627Z,10.50
2022-08-14T02:01:58.591Z,10.57
2022-08-14T02:04:54.953Z,9.63
2022-08-14T02:07:34.930Z,9.83
2022-08-14T02:10:15.610Z,10.83
2022-08-14T02:12:53.976Z,10.87
2022-08-14T02:15:27.052Z,9.63
2022-08-14T02:17:55.948Z,9.90
2022-08-14T02:20:25.352Z,9.80
2022-08-14T02:22:54.686Z,11.30
2022-08-14T02:25:29.907Z,9.90
2022-08-14T02:28:22.590Z,9.30
2022-08-14T02:30:48.517Z,10.03
2022-08-14T02:33:23.431Z,10.30
2022-08-14T02:35:57.891Z,10.53
2022-08-14T02:38:34.903Z,10.27
2022-08-14T02:41:09.043Z,9.47
2022-08-14T02:43:46.306Z,10.87
2022-08-14T02:46:20.500Z,10.37
2022-08-14T02:49:05.389Z,10.27
2022-08-14T02:51:37.048Z,11.00
2022-08-14T02:54:08.408Z,10.57
2022-08-14T02:57:14.292Z,10.83
2022-08-14T02:59:33.837Z,10.10
2022-08-14T03:02:04.422Z,10.97
2022-08-14T03:04:33.691Z,10.23
2022-08-14T03:07:07.373Z,10.53
2022-08-14T03:09:41.961Z,9.60
2022-08-14T03:12:31.907Z,11.13
2022-08-14T03:15:14.325Z,11.43
2022-08-14T03:17:57.119Z,11.40
2022-08-14T03:20:28.904Z,11.20
2022-08-14T03:23:03.209Z,12.10
2022-08-14T03:25:34.345Z,12.93
2022-08-14T03:28:14.717Z,10.87
2022-08-14T03:31:00.785Z,10.43
2022-08-14T03:33:37.715Z,9.63
2022-08-14T03:37:37.493Z,13.20
2022-08-14T03:39:12.192Z,9.83
2022-08-14T03:41:49.442Z,9.90
2022-08-14T03:45:25.403Z,11.60
2022-08-14T03:47:11.646Z,11.67
2022-08-14T03:49:43.168Z,10.40
2022-08-14T03:52:38.655Z,10.90
2022-08-14T03:55:03.825Z,10.87
2022-08-14T03:57:32.578Z,11.60
2022-08-14T04:00:07.610Z,11.67
2022-08-14T04:02:47.155Z,11.03
2022-08-14T04:05:16.451Z,10.30
2022-08-14T04:07:59.980Z,10.57
2022-08-14T04:10:36.506Z,10.87
2022-08-14T04:13:06.618Z,12.43
2022-08-14T04:15:52.694Z,10.70
2022-08-14T04:18:26.544Z,10.10
2022-08-14T04:20:55.976Z,10.77
2022-08-14T04:23:29.358Z,12.00
2022-08-14T04:26:04.501Z,10.90
2022-08-14T04:29:05.294Z,12.03
2022-08-14T04:33:00.756Z,11.80
2022-08-14T04:34:27.303Z,12.50
2022-08-14T04:37:22.062Z,11.80
2022-08-14T04:40:11.613Z,10.93
2022-08-14T04:42:58.600Z,11.40
2022-08-14T04:45:32.898Z,10.70
2022-08-14T04:48:39.838Z,11.97
2022-08-14T04:51:07.118Z,12.03
2022-08-14T04:53:43.981Z,11.03
2022-08-14T04:56:31.133Z,11.00
2022-08-14T04:59:09.595Z,10.40
2022-08-14T05:01:47.620Z,11.03
2022-08-14T05:04:21.181Z,14.23
2022-08-14T05:06:55.748Z,12.47
2022-08-14T05:09:29.078Z,13.13
2022-08-14T05:12:08.575Z,13.70
2022-08-14T05:14:55.087Z,12.20
2022-08-14T05:17:32.220Z,10.63
2022-08-14T05:21:54.377Z,11.73
2022-08-14T05:23:04.680Z,10.50
2022-08-14T05:25:34.430Z,11.23
2022-08-14T05:28:16.250Z,11.40
2022-08-14T05:30:46.389Z,10.83
2022-08-14T05:33:16.166Z,11.90
2022-08-14T05:35:47.959Z,13.13
2022-08-14T05:38:30.532Z,11.20
2022-08-14T05:41:00.268Z,11.30
2022-08-14T05:43:33.018Z,13.13
2022-08-14T05:46:15.679Z,10.50
2022-08-14T05:48:48.887Z,10.63
2022-08-14T05:51:19.876Z,13.40
2022-08-14T05:54:01.454Z,10.03
2022-08-14T05:56:37.863Z,9.47
2022-08-14T05:59:07.414Z,11.17
2022-08-14T06:01:36.663Z,11.73
2022-08-14T06:04:06.173Z,11.87
2022-08-14T06:06:38.288Z,11.90
2022-08-14T06:09:09.791Z,11.03
2022-08-14T06:11:38.971Z,11.20
2022-08-14T06:14:20.650Z,10.20
2022-08-14T06:16:51.975Z,10.50
2022-08-14T06:19:23.182Z,10.97
2022-08-14T06:21:59.351Z,10.20
2022-08-14T06:24:30.501Z,12.13
2022-08-14T06:27:06.448Z,10.70
2022-08-14T06:29:39.976Z,11.17
2022-08-14T06:32:38.634Z,11.90
2022-08-14T06:35:11.274Z,11.03
2022-08-14T06:37:46.923Z,11.30
2022-08-14T06:40:27.284Z,10.40
2022-08-14T06:43:00.545Z,13.63
2022-08-14T06:45:32.658Z,10.43
2022-08-14T06:48:03.561Z,10.50
2022-08-14T06:50:35.476Z,10.47
2022-08-14T06:53:05.691Z,11.47
2022-08-14T06:55:36.925Z,12.13
2022-08-14T06:58:25.088Z,12.53
2022-08-14T07:01:15.399Z,10.30
2022-08-14T07:04:02.320Z,12.50
2022-08-14T07:06:45.716Z,12.73
2022-08-14T07:09:23.060Z,13.13
2022-08-14T07:11:53.022Z,11.53
2022-08-14T07:14:21.790Z,11.10
2022-08-14T07:16:51.035Z,10.80
2022-08-14T07:19:21.147Z,12.00
2022-08-14T07:21:50.494Z,11.60
2022-08-14T07:24:21.723Z,10.30
2022-08-14T07:26:55.183Z,10.10
2022-08-14T07:29:26.180Z,11.10
2022-08-14T07:31:57.656Z,10.53
2022-08-14T07:34:40.622Z,10.77
2022-08-14T07:37:11.238Z,9.37
2022-08-14T07:39:43.489Z,11.30
2022-08-14T07:42:12.983Z,10.57
2022-08-14T07:44:46.240Z,10.60
2022-08-14T07:47:19.437Z,8.67
2022-08-14T07:50:03.026Z,10.60
2022-08-14T07:52:32.172Z,9.67
2022-08-14T07:55:03.328Z,10.03
2022-08-14T07:57:32.408Z,10.10
2022-08-14T08:00:01.559Z,9.67
2022-08-14T08:02:44.224Z,9.63
2022-08-14T08:05:16.443Z,11.00
2022-08-14T08:07:47.892Z,10.33
2022-08-14T08:11:01.309Z,10.27
2022-08-14T08:13:24.091Z,10.50
2022-08-14T08:15:58.300Z,10.83
2022-08-14T08:18:29.444Z,9.83
2022-08-14T08:21:00.211Z,11.30
2022-08-14T08:23:40.855Z,9.33
2022-08-14T08:26:21.240Z,11.30
2022-08-14T08:28:59.170Z,10.23
2022-08-14T08:31:32.947Z,9.33
2022-08-14T08:34:07.528Z,9.20
2022-08-14T08:36:46.661Z,8.57
2022-08-14T08:39:22.513Z,10.17
2022-08-14T08:41:54.084Z,9.00
2022-08-14T08:44:32.747Z,9.37
2022-08-14T08:47:06.538Z,8.83
2022-08-14T08:49:52.928Z,9.40
2022-08-14T08:52:42.313Z,8.80
2022-08-14T08:55:15.717Z,8.20
2022-08-14T08:57:45.934Z,7.73
2022-08-14T09:00:25.698Z,8.63
2022-08-14T09:02:57.763Z,7.80
2022-08-14T09:05:28.980Z,8.20
2022-08-14T09:08:30.560Z,8.17
2022-08-14T09:11:19.989Z,10.10
2022-08-14T09:13:55.647Z,8.07
2022-08-14T09:16:26.571Z,9.43
2022-08-14T09:18:55.999Z,8.37
2022-08-14T09:21:31.251Z,8.77
2022-08-14T09:24:28.093Z,10.40
2022-08-14T09:26:51.931Z,9.77
2022-08-14T09:29:23.739Z,11.13
2022-08-14T09:32:10.132Z,9.27
2022-08-14T09:35:13.954Z,8.93
2022-08-14T09:38:00.030Z,7.47
2022-08-14T09:40:49.301Z,8.60
2022-08-14T09:43:32.083Z,8.40
2022-08-14T09:46:08.894Z,8.87
2022-08-14T09:48:39.815Z,8.70
2022-08-14T09:51:25.441Z,8.17
2022-08-14T09:54:17.693Z,8.33
2022-08-14T09:56:57.315Z,12.40
2022-08-14T09:59:32.278Z,10.23
2022-08-14T10:02:07.946Z,8.10
2022-08-14T10:04:41.227Z,7.57
2022-08-14T10:07:14.901Z,7.73
2022-08-14T10:09:59.943Z,7.87
2022-08-14T10:12:50.162Z,7.57
2022-08-14T10:15:27.877Z,8.20
2022-08-14T10:18:17.691Z,7.73
2022-08-14T10:21:02.171Z,8.20
2022-08-14T10:23:45.484Z,9.00
2022-08-14T10:26:22.803Z,7.07
2022-08-14T10:29:18.790Z,7.23
2022-08-14T10:31:59.372Z,7.03
2022-08-14T10:34:36.758Z,6.97
2022-08-14T10:37:14.607Z,6.83
2022-08-14T10:39:51.382Z,6.10
2022-08-14T10:42:38.357Z,6.60
2022-08-14T10:45:21.936Z,6.93
2022-08-14T10:48:08.890Z,6.50
2022-08-14T10:50:51.660Z,4.90
2022-08-14T10:53:35.821Z,7.70
2022-08-14T10:56:22.113Z,5.87
2022-08-14T10:59:05.007Z,6.23
2022-08-14T11:01:41.121Z,7.73
2022-08-14T11:04:30.251Z,5.70
2022-08-14T11:07:01.445Z,6.10
2022-08-14T11:09:31.703Z,5.47
2022-08-14T11:12:34.071Z,7.43
2022-08-14T11:15:02.148Z,6.30
2022-08-14T11:17:33.290Z,7.10
2022-08-14T11:20:06.364Z,6.50
2022-08-14T11:23:03.081Z,6.93
2022-08-14T11:25:43.362Z,7.93
2022-08-14T11:28:19.565Z,5.33
2022-08-14T11:31:12.767Z,6.20
2022-08-14T11:33:42.207Z,6.63
2022-08-14T11:36:18.179Z,6.40
2022-08-14T11:38:49.492Z,7.03
2022-08-14T11:41:25.359Z,7.23
2022-08-14T11:43:57.866Z,5.93
2022-08-14T11:46:37.397Z,6.93
2022-08-14T11:49:09.503Z,12.17
2022-08-14T11:51:53.401Z,5.93
2022-08-14T11:54:34.282Z,6.23
2022-08-14T11:57:05.743Z,8.03
2022-08-14T11:59:35.169Z,5.87
2022-08-14T12:03:01.730Z,5.87
2022-08-14T12:05:09.361Z,6.70
2022-08-14T12:07:49.812Z,7.37
2022-08-14T12:10:26.954Z,6.90
2022-08-14T12:13:17.485Z,7.90
2022-08-14T12:15:51.520Z,6.13
2022-08-14T12:18:32.749Z,6.67
2022-08-14T12:21:15.840Z,6.60
2022-08-14T12:24:01.996Z,7.17
2022-08-14T12:26:40.879Z,6.00
2022-08-14T12:29:13.913Z,5.80
2022-08-14T12:31:47.048Z,8.40
2022-08-14T12:34:20.303Z,6.90
2022-08-14T12:36:49.780Z,7.30
2022-08-14T12:39:24.673Z,9.43
2022-08-14T12:42:06.646Z,7.53
2022-08-14T12:44:39.259Z,7.00
2022-08-14T12:47:17.027Z,6.20
2022-08-14T12:49:53.512Z,6.60
2022-08-14T12:52:43.197Z,5.90
2022-08-14T12:55:21.862Z,6.27
2022-08-14T12:57:55.533Z,6.70
2022-08-14T13:00:26.306Z,6.50
2022-08-14T13:02:57.531Z,6.80
2022-08-14T13:05:30.312Z,6.37
2022-08-14T13:08:03.771Z,6.00
2022-08-14T13:10:51.183Z,6.03
2022-08-14T13:13:23.816Z,7.77
2022-08-14T13:15:59.770Z,7.20
2022-08-14T13:18:31.457Z,6.57
2022-08-14T13:21:05.790Z,6.77
2022-08-14T13:23:37.376Z,5.37
2022-08-14T13:26:08.619Z,7.07
2022-08-14T13:29:02.410Z,5.70
2022-08-14T13:31:34.784Z,6.07
2022-08-14T13:34:04.698Z,8.70
2022-08-14T13:36:54.500Z,5.47
2022-08-14T13:39:26.936Z,7.50
2022-08-14T13:41:57.681Z,7.50
2022-08-14T13:44:29.071Z,6.30
2022-08-14T13:46:58.715Z,5.53
2022-08-14T13:49:29.239Z,9.37
2022-08-14T13:52:04.350Z,8.60
2022-08-14T13:55:01.237Z,8.00
2022-08-14T13:57:33.661Z,6.40
2022-08-14T14:00:10.201Z,6.87
2022-08-14T14:02:45.833Z,6.57
2022-08-14T14:05:18.850Z,6.87
2022-08-14T14:07:54.504Z,6.57
2022-08-14T14:10:28.457Z,7.23
2022-08-14T14:12:57.872Z,5.03
2022-08-14T14:15:48.428Z,6.20
2022-08-14T14:18:34.549Z,4.83
2022-08-14T14:21:06.581Z,6.63
2022-08-14T14:23:39.073Z,6.40
2022-08-14T14:26:13.745Z,7.20
2022-08-14T14:28:50.613Z,5.50
2022-08-14T14:31:30.257Z,9.00
2022-08-14T14:34:07.542Z,5.90
2022-08-14T14:36:55.432Z,5.50
2022-08-14T14:39:28.815Z,6.10
2022-08-14T14:42:05.351Z,5.27
2022-08-14T14:44:41.387Z,5.90
2022-08-14T14:47:15.567Z,8.10
2022-08-14T14:49:54.749Z,6.80
2022-08-14T14:52:27.575Z,6.40
2022-08-14T14:54:59.038Z,6.57
2022-08-14T14:57:35.258Z,6.03
2022-08-14T15:00:12.625Z,8.07
2022-08-14T15:02:46.549Z,5.20
2022-08-14T15:05:19.093Z,5.93
2022-08-14T15:07:52.883Z,10.20
2022-08-14T15:10:27.532Z,6.00
2022-08-14T15:13:03.431Z,5.37
2022-08-14T15:15:33.658Z,10.53
2022-08-14T15:18:36.365Z,6.90
2022-08-14T15:20:59.595Z,5.70
2022-08-14T15:23:32.540Z,5.20
2022-08-14T15:26:31.269Z,4.87
2022-08-14T15:29:05.653Z,5.47
2022-08-14T15:31:37.528Z,4.63
2022-08-14T15:34:43.570Z,5.13
2022-08-14T15:37:02.239Z,5.10
2022-08-14T15:39:35.497Z,5.83
2022-08-14T15:42:16.330Z,4.50
2022-08-14T15:44:57.433Z,5.00
2022-08-14T15:47:29.722Z,4.40
2022-08-14T15:50:02.937Z,6.47
2022-08-14T15:52:34.789Z,6.77
2022-08-14T15:55:08.581Z,4.17
2022-08-14T15:58:01.437Z,5.10
2022-08-14T16:00:50.223Z,5.43
2022-08-14T16:03:27.582Z,5.20
2022-08-14T16:06:10.576Z,5.00
2022-08-14T16:08:46.208Z,6.20
2022-08-14T16:11:19.593Z,4.60
2022-08-14T16:13:49.252Z,6.80
2022-08-14T16:16:49.767Z,5.60
2022-08-14T16:19:11.337Z,4.57
2022-08-14T16:22:01.426Z,6.97
2022-08-14T16:24:57.758Z,4.63
2022-08-14T16:27:37.196Z,5.73
2022-08-14T16:30:24.571Z,5.47
2022-08-14T16:32:59.079Z,6.63
2022-08-14T16:35:43.053Z,5.63
2022-08-14T16:38:46.260Z,4.57
2022-08-14T16:41:23.255Z,8.23
2022-08-14T16:43:59.261Z,3.93
2022-08-14T16:46:32.846Z,6.27
2022-08-14T16:49:03.031Z,4.70
2022-08-14T16:51:36.535Z,4.40
2022-08-14T16:54:21.079Z,6.10
2022-08-14T16:57:17.300Z,6.23
2022-08-14T16:59:57.091Z,5.73
2022-08-14T17:02:45.140Z,4.67
2022-08-14T17:05:21.998Z,5.80
2022-08-14T17:08:41.689Z,6.63
2022-08-14T17:11:11.104Z,4.90
2022-08-14T17:13:57.882Z,5.40
2022-08-14T17:16:37.207Z,5.23
2022-08-14T17:19:14.387Z,6.33
2022-08-14T17:21:47.050Z,6.13
2022-08-14T17:24:57.895Z,5.70
2022-08-14T17:27:11.529Z,6.33
2022-08-14T17:29:57.627Z,6.17
2022-08-14T17:32:55.885Z,6.33
2022-08-14T17:35:57.380Z,6.70
2022-08-14T17:41:27.149Z,6.27
2022-08-14T17:44:21.475Z,6.37
2022-08-14T17:46:55.319Z,7.80
2022-08-14T17:49:31.970Z,7.50
2022-08-14T17:52:16.663Z,6.37
2022-08-14T17:54:58.856Z,6.80
2022-08-14T17:57:35.182Z,9.03
2022-08-14T18:00:19.520Z,7.10
2022-08-14T18:02:51.081Z,7.10
2022-08-14T18:06:07.791Z,7.00
2022-08-14T18:08:31.967Z,7.53
2022-08-14T18:11:03.359Z,7.80
2022-08-14T18:13:50.908Z,7.60
2022-08-14T18:16:23.041Z,7.20
2022-08-14T18:18:53.119Z,9.23
2022-08-14T18:21:56.139Z,8.47
2022-08-14T18:24:20.201Z,7.43
2022-08-14T18:27:08.748Z,7.17
2022-08-14T18:29:54.634Z,9.13
2022-08-14T18:32:55.300Z,8.77
2022-08-14T18:35:45.598Z,7.73
2022-08-14T18:38:45.902Z,8.50
2022-08-14T18:41:37.154Z,7.70
2022-08-14T18:44:10.446Z,7.57
2022-08-14T18:47:23.153Z,7.97
2022-08-14T18:50:26.128Z,9.73
2022-08-14T18:53:09.205Z,7.37
2022-08-14T18:55:53.822Z,7.37
2022-08-14T18:58:28.058Z,7.93
2022-08-14T19:01:02.051Z,8.70
2022-08-14T19:03:48.572Z,8.00
2022-08-14T19:06:18.817Z,9.00
2022-08-14T19:08:50.474Z,8.07
2022-08-14T19:11:51.479Z,8.67
2022-08-14T19:14:48.469Z,8.00
2022-08-14T19:18:10.658Z,7.87
2022-08-14T19:20:52.852Z,7.30
2022-08-14T19:23:42.218Z,7.50
2022-08-14T19:26:34.181Z,8.63
2022-08-14T19:29:36.058Z,7.70
2022-08-14T19:32:40.882Z,7.37
2022-08-14T19:35:55.006Z,9.57
2022-08-14T19:38:57.523Z,10.43
2022-08-14T19:41:34.080Z,7.73
2022-08-14T19:44:19.050Z,10.50
2022-08-14T19:47:00.017Z,8.33
2022-08-14T19:50:30.204Z,9.63
2022-08-14T19:52:35.314Z,9.50
2022-08-14T19:55:19.776Z,7.37
2022-08-14T19:57:58.008Z,7.27
2022-08-14T20:00:30.468Z,8.50
2022-08-14T20:03:10.145Z,8.20
2022-08-14T20:05:42.862Z,9.20
2022-08-14T20:09:05.924Z,8.40
2022-08-14T20:11:42.935Z,8.57
2022-08-14T20:14:09.507Z,12.30
2022-08-14T20:16:43.359Z,10.37
2022-08-14T20:19:20.055Z,9.43
2022-08-14T20:22:00.677Z,7.73
2022-08-14T20:24:45.279Z,8.27
2022-08-14T20:27:39.509Z,10.87
2022-08-14T20:30:29.660Z,9.60
2022-08-14T20:33:07.447Z,8.40
2022-08-14T20:35:42.762Z,15.47
2022-08-14T20:38:29.867Z,8.90
2022-08-14T20:41:06.840Z,9.93
2022-08-14T20:44:02.722Z,9.60
2022-08-14T20:46:39.571Z,10.23
2022-08-14T20:49:16.218Z,8.70
2022-08-14T20:51:58.391Z,9.73
2022-08-14T20:54:33.773Z,10.10
2022-08-14T20:57:09.308Z,8.73
2022-08-14T20:59:45.004Z,8.50
2022-08-14T21:02:46.802Z,9.97
2022-08-14T21:05:34.264Z,9.10
2022-08-14T21:08:09.955Z,9.60
2022-08-14T21:10:54.954Z,12.87
2022-08-14T21:14:19.706Z,10.47
2022-08-14T21:16:33.493Z,10.10
2022-08-14T21:19:08.592Z,9.20
2022-08-14T21:21:42.296Z,7.50
2022-08-14T21:24:40.183Z,9.97
2022-08-14T21:27:12.956Z,9.53
2022-08-14T21:29:53.866Z,10.93
2022-08-14T21:32:50.092Z,10.20
2022-08-14T21:35:22.921Z,8.93
2022-08-14T21:37:53.929Z,9.93
2022-08-14T21:40:41.573Z,13.30
2022-08-14T21:43:17.799Z,10.90
2022-08-14T21:45:53.450Z,14.73
2022-08-14T21:48:25.006Z,11.53
2022-08-14T21:51:02.237Z,12.03
2022-08-14T21:53:57.981Z,10.40
2022-08-14T21:56:38.913Z,8.70
2022-08-14T21:59:17.736Z,10.10
2022-08-14T22:02:01.946Z,10.07
2022-08-14T22:04:40.409Z,10.57
2022-08-14T22:07:17.344Z,11.73
2022-08-14T22:09:55.184Z,10.40
2022-08-14T22:12:45.338Z,8.63
2022-08-14T22:15:19.289Z,15.43
2022-08-14T22:17:54.202Z,12.37
2022-08-14T22:20:28.614Z,11.57
2022-08-14T22:23:02.993Z,10.63
2022-08-14T22:25:33.855Z,11.27
2022-08-14T22:28:05.983Z,13.83
2022-08-14T22:30:36.953Z,10.60
2022-08-14T22:33:10.150Z,9.97
2022-08-14T22:35:43.179Z,11.90
2022-08-14T22:38:35.406Z,11.87
2022-08-14T22:41:25.947Z,12.23
2022-08-14T22:43:56.626Z,10.17
2022-08-14T22:46:28.194Z,11.70
2022-08-14T22:48:58.012Z,11.07
2022-08-14T22:51:27.863Z,10.90
2022-08-14T22:54:00.245Z,11.13
2022-08-14T22:56:30.848Z,11.30
2022-08-14T22:59:02.697Z,11.03
2022-08-14T23:01:56.313Z,10.30
2022-08-14T23:04:54.009Z,12.00
2022-08-14T23:07:25.060Z,12.87
2022-08-14T23:10:32.640Z,13.77
2022-08-14T23:12:54.411Z,15.03
2022-08-14T23:15:29.957Z,11.03
2022-08-14T23:17:59.491Z,11.93
2022-08-14T23:20:29.883Z,16.70
2022-08-14T23:22:59.455Z,10.93
2022-08-14T23:25:57.558Z,11.20
2022-08-14T23:28:33.634Z,13.23
2022-08-14T23:31:34.360Z,12.57
2022-08-14T23:34:07.193Z,10.93
2022-08-14T23:36:54.601Z,13.67
2022-08-14T23:39:32.615Z,12.77
2022-08-14T23:42:09.872Z,12.13
2022-08-14T23:44:40.850Z,17.03
2022-08-14T23:47:26.873Z,13.23
2022-08-14T23:50:00.748Z,11.63
2022-08-14T23:52:51.094Z,13.93
2022-08-14T23:55:32.041Z,14.43
2022-08-14T23:58:02.855Z,10.73
